createdAt,value
2023-03-06T00:00:22.364Z,3.65
2023-03-06T00:01:22.355Z,3.64
2023-03-06T00:02:22.370Z,3.62
2023-03-06T00:03:22.453Z,3.58
2023-03-06T00:04:22.343Z,3.58
2023-03-06T00:05:22.355Z,3.57
2023-03-06T00:06:23.482Z,3.61
2023-03-06T00:07:22.336Z,3.60
2023-03-06T00:08:22.307Z,3.58
2023-03-06T00:09:22.292Z,3.54
2023-03-06T00:10:22.324Z,3.49
2023-03-06T00:11:22.264Z,3.49
2023-03-06T00:12:22.245Z,3.53
2023-03-06T00:13:22.226Z,3.54
2023-03-06T00:14:22.248Z,3.52
2023-03-06T00:15:22.208Z,3.49
2023-03-06T00:16:22.244Z,3.44
2023-03-06T00:17:22.198Z,3.50
2023-03-06T00:18:22.219Z,3.53
2023-03-06T00:19:22.139Z,3.57
2023-03-06T00:20:22.269Z,3.58
2023-03-06T00:21:22.125Z,3.54
2023-03-06T00:22:22.087Z,3.54
2023-03-06T00:23:22.119Z,3.52
2023-03-06T00:24:22.060Z,3.52
2023-03-06T00:25:22.147Z,3.50
2023-03-06T00:26:22.059Z,3.50
2023-03-06T00:27:22.030Z,3.52
2023-03-06T00:28:22.053Z,3.54
2023-03-06T00:29:22.049Z,3.54
2023-03-06T00:30:22.071Z,3.53
2023-03-06T00:31:22.962Z,3.53
2023-03-06T00:32:22.024Z,3.53
2023-03-06T00:33:22.933Z,3.50
2023-03-06T00:34:21.959Z,3.50
2023-03-06T00:35:22.000Z,3.47
2023-03-06T00:36:21.945Z,3.46
2023-03-06T00:37:22.884Z,3.46
2023-03-06T00:38:21.888Z,3.47
2023-03-06T00:39:21.917Z,3.47
2023-03-06T00:40:21.930Z,3.47
2023-03-06T00:41:21.881Z,3.49
2023-03-06T00:42:21.896Z,3.47
2023-03-06T00:43:21.859Z,3.49
2023-03-06T00:44:21.830Z,3.46
2023-03-06T00:45:22.045Z,3.42
2023-03-06T00:46:21.825Z,3.39
2023-03-06T00:47:21.772Z,3.42
2023-03-06T00:48:21.756Z,3.43
2023-03-06T00:49:21.783Z,3.44
2023-03-06T00:50:22.838Z,3.44
2023-03-06T00:51:21.734Z,3.43
2023-03-06T00:52:21.741Z,3.42
2023-03-06T00:53:21.754Z,3.42
2023-03-06T00:54:21.677Z,3.44
2023-03-06T00:55:21.697Z,3.44
2023-03-06T00:56:22.774Z,3.44
2023-03-06T00:57:21.666Z,3.43
2023-03-06T00:58:21.642Z,3.46
2023-03-06T00:59:21.621Z,3.46
2023-03-06T01:00:21.612Z,3.46
2023-03-06T01:01:21.677Z,3.47
2023-03-06T01:02:21.761Z,3.47
2023-03-06T01:03:21.602Z,3.44
2023-03-06T01:04:21.615Z,3.44
2023-03-06T01:05:21.538Z,3.46
2023-03-06T01:06:21.540Z,3.47
2023-03-06T01:07:21.566Z,3.47
2023-03-06T01:08:21.531Z,3.44
2023-03-06T01:09:21.656Z,3.43
2023-03-06T01:10:21.596Z,3.40
2023-03-06T01:11:21.536Z,3.40
2023-03-06T01:12:23.570Z,3.34
2023-03-06T01:13:21.457Z,3.33
2023-03-06T01:14:21.480Z,3.36
2023-03-06T01:15:22.491Z,3.36
2023-03-06T01:16:22.413Z,3.34
2023-03-06T01:17:21.426Z,3.40
2023-03-06T01:18:21.414Z,3.42
2023-03-06T01:19:21.369Z,3.44
2023-03-06T01:20:21.436Z,3.43
2023-03-06T01:21:21.353Z,3.43
2023-03-06T01:22:22.322Z,3.46
2023-03-06T01:23:21.317Z,3.46
2023-03-06T01:24:21.316Z,3.47
2023-03-06T01:25:21.325Z,3.47
2023-03-06T01:26:21.280Z,3.47
2023-03-06T01:27:21.303Z,3.47
2023-03-06T01:28:21.290Z,3.50
2023-03-06T01:29:21.415Z,3.47
2023-03-06T01:30:21.268Z,3.47
2023-03-06T01:31:21.284Z,3.49
2023-03-06T01:32:21.270Z,3.49
2023-03-06T01:33:21.191Z,3.49
2023-03-06T01:34:21.307Z,3.50
2023-03-06T01:35:22.128Z,3.54
2023-03-06T01:36:21.207Z,3.53
2023-03-06T01:37:21.161Z,3.54
2023-03-06T01:38:21.160Z,3.57
2023-03-06T01:39:21.102Z,3.54
2023-03-06T01:40:21.195Z,3.54
2023-03-06T01:41:21.135Z,3.52
2023-03-06T01:42:21.102Z,3.53
2023-03-06T01:43:21.066Z,3.53
2023-03-06T01:44:21.078Z,3.50
2023-03-06T01:45:21.024Z,3.52
2023-03-06T01:46:21.122Z,3.53
2023-03-06T01:47:21.003Z,3.50
2023-03-06T01:48:21.004Z,3.54
2023-03-06T01:49:20.978Z,3.50
2023-03-06T01:50:20.998Z,3.52
2023-03-06T01:51:20.974Z,3.50
2023-03-06T01:52:21.095Z,3.50
2023-03-06T01:53:20.930Z,3.50
2023-03-06T01:54:20.974Z,3.50
2023-03-06T01:55:20.941Z,3.52
2023-03-06T01:56:20.918Z,3.53
2023-03-06T01:57:20.911Z,3.50
2023-03-06T01:58:20.868Z,3.50
2023-03-06T01:59:20.865Z,3.49
2023-03-06T02:00:21.757Z,3.49
2023-03-06T02:01:21.280Z,3.52
2023-03-06T02:02:20.965Z,3.53
2023-03-06T02:03:20.802Z,3.52
2023-03-06T02:04:20.839Z,3.58
2023-03-06T02:05:20.804Z,3.57
2023-03-06T02:06:20.813Z,3.57
2023-03-06T02:07:21.593Z,3.54
2023-03-06T02:08:20.819Z,3.54
2023-03-06T02:09:20.771Z,3.54
2023-03-06T02:10:20.750Z,3.58
2023-03-06T02:11:20.719Z,3.58
2023-03-06T02:12:20.723Z,3.58
2023-03-06T02:13:20.758Z,3.57
2023-03-06T02:14:21.942Z,3.57
2023-03-06T02:15:20.652Z,3.54
2023-03-06T02:16:20.666Z,3.54
2023-03-06T02:17:20.694Z,3.54
2023-03-06T02:18:20.676Z,3.54
2023-03-06T02:19:20.824Z,3.58
2023-03-06T02:20:20.781Z,3.58
2023-03-06T02:21:20.602Z,3.58
2023-03-06T02:22:20.592Z,3.60
2023-03-06T02:23:20.580Z,3.57
2023-03-06T02:24:20.535Z,3.58
2023-03-06T02:25:20.904Z,3.57
2023-03-06T02:26:20.563Z,3.53
2023-03-06T02:27:20.520Z,3.53
2023-03-06T02:28:20.495Z,3.53
2023-03-06T02:29:20.513Z,3.53
2023-03-06T02:30:20.467Z,3.54
2023-03-06T02:31:20.481Z,3.52
2023-03-06T02:32:21.293Z,3.50
2023-03-06T02:33:21.656Z,3.50
2023-03-06T02:34:21.421Z,3.49
2023-03-06T02:35:20.415Z,3.49
2023-03-06T02:36:20.499Z,3.49
2023-03-06T02:37:20.382Z,3.50
2023-03-06T02:38:20.419Z,3.49
2023-03-06T02:39:21.607Z,3.49
2023-03-06T02:40:20.358Z,3.46
2023-03-06T02:41:20.330Z,3.46
2023-03-06T02:42:20.348Z,3.43
2023-03-06T02:43:20.347Z,3.43
2023-03-06T02:44:20.333Z,3.39
2023-03-06T02:45:21.268Z,3.36
2023-03-06T02:46:20.478Z,3.34
2023-03-06T02:47:20.286Z,3.31
2023-03-06T02:48:20.239Z,3.30
2023-03-06T02:49:20.244Z,3.30
2023-03-06T02:50:20.275Z,3.31
2023-03-06T02:51:20.243Z,3.30
2023-03-06T02:52:20.203Z,3.30
2023-03-06T02:53:20.233Z,3.27
2023-03-06T02:54:20.205Z,3.28
2023-03-06T02:55:20.181Z,3.30
2023-03-06T02:56:20.180Z,3.30
2023-03-06T02:57:20.153Z,3.28
2023-03-06T02:58:20.354Z,3.28
2023-03-06T02:59:20.141Z,3.27
2023-03-06T03:00:20.086Z,3.24
2023-03-06T03:01:20.120Z,3.24
2023-03-06T03:02:20.076Z,3.24
2023-03-06T03:03:20.069Z,3.25
2023-03-06T03:04:21.289Z,3.25
2023-03-06T03:05:20.046Z,3.24
2023-03-06T03:06:20.007Z,3.24
2023-03-06T03:07:20.004Z,3.23
2023-03-06T03:08:20.005Z,3.24
2023-03-06T03:09:20.001Z,3.23
2023-03-06T03:10:19.970Z,3.24
2023-03-06T03:11:19.940Z,3.24
2023-03-06T03:12:19.945Z,3.23
2023-03-06T03:13:19.913Z,3.24
2023-03-06T03:14:20.781Z,3.24
2023-03-06T03:15:19.875Z,3.25
2023-03-06T03:16:19.969Z,3.25
2023-03-06T03:17:19.899Z,3.24
2023-03-06T03:18:19.852Z,3.25
2023-03-06T03:19:19.883Z,3.24
2023-03-06T03:20:19.884Z,3.24
2023-03-06T03:21:19.868Z,3.24
2023-03-06T03:22:21.048Z,3.23
2023-03-06T03:23:19.812Z,3.23
2023-03-06T03:24:19.877Z,3.24
2023-03-06T03:25:19.777Z,3.25
2023-03-06T03:26:19.778Z,3.24
2023-03-06T03:27:19.774Z,3.25
2023-03-06T03:28:19.747Z,3.25
2023-03-06T03:29:19.756Z,3.25
2023-03-06T03:30:20.794Z,3.25
2023-03-06T03:31:19.733Z,3.24
2023-03-06T03:32:19.919Z,3.24
2023-03-06T03:33:19.692Z,3.24
2023-03-06T03:34:19.655Z,3.24
2023-03-06T03:35:19.775Z,3.24
2023-03-06T03:36:19.669Z,3.23
2023-03-06T03:37:19.654Z,3.23
2023-03-06T03:38:19.660Z,3.23
2023-03-06T03:39:19.584Z,3.23
2023-03-06T03:40:19.622Z,3.21
2023-03-06T03:41:19.602Z,3.20
2023-03-06T03:42:19.601Z,3.20
2023-03-06T03:43:20.532Z,3.20
2023-03-06T03:44:19.570Z,3.18
2023-03-06T03:45:19.524Z,3.18
2023-03-06T03:46:19.553Z,3.20
2023-03-06T03:47:19.504Z,3.16
2023-03-06T03:48:19.510Z,3.13
2023-03-06T03:49:19.524Z,3.06
2023-03-06T03:50:19.537Z,2.97
2023-03-06T03:51:19.433Z,2.91
2023-03-06T03:52:19.454Z,2.88
2023-03-06T03:53:19.445Z,2.84
2023-03-06T03:54:20.416Z,2.76
2023-03-06T03:55:19.384Z,2.74
2023-03-06T03:56:20.308Z,2.70
2023-03-06T03:57:19.361Z,2.66
2023-03-06T03:58:19.372Z,2.64
2023-03-06T03:59:19.376Z,2.61
2023-03-06T04:00:19.345Z,2.61
2023-03-06T04:01:19.346Z,2.58
2023-03-06T04:02:19.527Z,2.56
2023-03-06T04:03:19.324Z,2.52
2023-03-06T04:04:19.268Z,2.49
2023-03-06T04:05:19.302Z,2.46
2023-03-06T04:06:19.289Z,2.44
2023-03-06T04:07:20.307Z,2.40
2023-03-06T04:08:19.349Z,2.38
2023-03-06T04:09:20.123Z,2.37
2023-03-06T04:10:19.314Z,2.37
2023-03-06T04:11:19.223Z,2.34
2023-03-06T04:12:19.251Z,2.31
2023-03-06T04:13:19.190Z,2.30
2023-03-06T04:14:19.201Z,2.28
2023-03-06T04:15:20.114Z,2.27
2023-03-06T04:16:19.244Z,2.22
2023-03-06T04:17:19.113Z,2.20
2023-03-06T04:18:19.082Z,2.17
2023-03-06T04:19:19.541Z,2.17
2023-03-06T04:20:19.451Z,2.16
2023-03-06T04:21:19.172Z,2.15
2023-03-06T04:22:19.419Z,2.12
2023-03-06T04:23:19.100Z,2.10
2023-03-06T04:24:19.100Z,2.09
2023-03-06T04:25:19.119Z,2.09
2023-03-06T04:26:19.322Z,2.04
2023-03-06T04:27:19.093Z,1.99
2023-03-06T04:28:19.099Z,2.01
2023-03-06T04:29:19.051Z,1.99
2023-03-06T04:30:18.956Z,1.98
2023-03-06T04:31:18.968Z,1.98
2023-03-06T04:32:21.318Z,1.97
2023-03-06T04:33:18.997Z,1.93
2023-03-06T04:34:18.941Z,1.91
2023-03-06T04:35:19.010Z,1.91
2023-03-06T04:36:18.920Z,1.90
2023-03-06T04:37:18.932Z,1.90
2023-03-06T04:38:18.858Z,1.89
2023-03-06T04:39:19.322Z,1.89
2023-03-06T04:40:19.200Z,1.89
2023-03-06T04:41:19.613Z,1.89
2023-03-06T04:42:18.841Z,1.85
2023-03-06T04:43:18.836Z,1.85
2023-03-06T04:44:18.907Z,1.83
2023-03-06T04:45:19.744Z,1.85
2023-03-06T04:46:18.797Z,1.82
2023-03-06T04:47:19.283Z,1.82
2023-03-06T04:48:18.923Z,1.80
2023-03-06T04:49:18.763Z,1.82
2023-03-06T04:50:18.767Z,1.80
2023-03-06T04:51:18.700Z,1.79
2023-03-06T04:52:18.781Z,1.76
2023-03-06T04:53:18.732Z,1.75
2023-03-06T04:54:19.128Z,1.75
2023-03-06T04:55:18.742Z,1.75
2023-03-06T04:56:18.649Z,1.73
2023-03-06T04:57:18.624Z,1.73
2023-03-06T04:58:18.679Z,1.72
2023-03-06T04:59:18.717Z,1.71
2023-03-06T05:00:18.563Z,1.69
2023-03-06T05:01:18.726Z,1.69
2023-03-06T05:02:18.727Z,1.69
2023-03-06T05:03:18.564Z,1.68
2023-03-06T05:04:18.527Z,1.68
2023-03-06T05:05:19.356Z,1.64
2023-03-06T05:06:19.615Z,1.64
2023-03-06T05:07:18.552Z,1.64
2023-03-06T05:08:18.509Z,1.65
2023-03-06T05:09:18.498Z,1.64
2023-03-06T05:10:18.493Z,1.62
2023-03-06T05:11:18.906Z,1.61
2023-03-06T05:12:18.920Z,1.60
2023-03-06T05:13:18.401Z,1.58
2023-03-06T05:14:18.573Z,1.60
2023-03-06T05:15:18.404Z,1.58
2023-03-06T05:16:18.477Z,1.57
2023-03-06T05:17:19.216Z,1.57
2023-03-06T05:18:18.337Z,1.55
2023-03-06T05:19:18.400Z,1.52
2023-03-06T05:20:18.416Z,1.54
2023-03-06T05:21:18.326Z,1.51
2023-03-06T05:22:18.309Z,1.51
2023-03-06T05:23:18.303Z,1.50
2023-03-06T05:24:18.529Z,1.50
2023-03-06T05:25:18.390Z,1.47
2023-03-06T05:26:18.526Z,1.47
2023-03-06T05:27:18.225Z,1.46
2023-03-06T05:28:18.301Z,1.46
2023-03-06T05:29:18.343Z,1.43
2023-03-06T05:30:19.649Z,1.40
2023-03-06T05:31:18.352Z,1.40
2023-03-06T05:32:18.343Z,1.40
2023-03-06T05:33:18.169Z,1.39
2023-03-06T05:34:18.292Z,1.40
2023-03-06T05:35:18.164Z,1.39
2023-03-06T05:36:18.268Z,1.39
2023-03-06T05:37:18.189Z,1.37
2023-03-06T05:38:18.145Z,1.37
2023-03-06T05:39:18.143Z,1.34
2023-03-06T05:40:18.246Z,1.33
2023-03-06T05:41:18.125Z,1.32
2023-03-06T05:42:18.091Z,1.28
2023-03-06T05:43:18.392Z,1.25
2023-03-06T05:44:19.196Z,1.22
2023-03-06T05:45:18.059Z,1.22
2023-03-06T05:46:18.185Z,1.21
2023-03-06T05:47:18.048Z,1.18
2023-03-06T05:48:17.975Z,1.16
2023-03-06T05:49:18.167Z,1.15
2023-03-06T05:50:18.029Z,1.15
2023-03-06T05:51:17.957Z,1.12
2023-03-06T05:52:17.922Z,1.12
2023-03-06T05:53:17.910Z,1.12
2023-03-06T05:54:18.729Z,1.08
2023-03-06T05:55:17.928Z,1.07
2023-03-06T05:56:18.035Z,1.08
2023-03-06T05:57:17.864Z,1.07
2023-03-06T05:58:17.861Z,1.06
2023-03-06T05:59:17.877Z,1.04
2023-03-06T06:00:17.837Z,1.04
2023-03-06T06:01:17.824Z,1.03
2023-03-06T06:02:17.945Z,1.01
2023-03-06T06:03:18.005Z,0.97
2023-03-06T06:04:17.777Z,0.94
2023-03-06T06:05:17.776Z,0.94
2023-03-06T06:06:17.782Z,0.90
2023-03-06T06:07:17.784Z,0.89
2023-03-06T06:08:17.805Z,0.88
2023-03-06T06:09:17.735Z,0.89
2023-03-06T06:10:17.786Z,0.89
2023-03-06T06:11:17.721Z,0.90
2023-03-06T06:12:17.668Z,0.89
2023-03-06T06:13:17.702Z,0.90
2023-03-06T06:14:17.687Z,0.88
2023-03-06T06:15:18.150Z,0.88
2023-03-06T06:16:17.650Z,0.85
2023-03-06T06:17:17.631Z,0.85
2023-03-06T06:18:17.597Z,0.85
2023-03-06T06:19:17.630Z,0.85
2023-03-06T06:20:17.567Z,0.83
2023-03-06T06:21:17.558Z,0.86
2023-03-06T06:22:18.606Z,0.85
2023-03-06T06:23:17.533Z,0.86
2023-03-06T06:24:17.548Z,0.85
2023-03-06T06:25:17.490Z,0.83
2023-03-06T06:26:17.521Z,0.83
2023-03-06T06:27:17.658Z,0.83
2023-03-06T06:28:17.550Z,0.85
2023-03-06T06:29:17.477Z,0.85
2023-03-06T06:30:17.465Z,0.86
2023-03-06T06:31:17.538Z,0.83
2023-03-06T06:32:17.497Z,0.83
2023-03-06T06:33:17.457Z,0.82
2023-03-06T06:34:18.482Z,0.83
2023-03-06T06:35:17.384Z,0.83
2023-03-06T06:36:17.399Z,0.83
2023-03-06T06:37:17.404Z,0.88
2023-03-06T06:38:17.431Z,0.88
2023-03-06T06:39:17.366Z,0.89
2023-03-06T06:40:17.329Z,0.92
2023-03-06T06:42:31.526Z,0.94
2023-03-06T06:43:18.354Z,0.92
2023-03-06T06:44:17.308Z,0.90
2023-03-06T06:45:17.466Z,0.89
2023-03-06T06:46:56.184Z,0.89
2023-03-06T06:47:23.096Z,0.90
2023-03-06T06:48:18.609Z,0.88
2023-03-06T06:49:18.072Z,0.88
2023-03-06T06:50:17.260Z,0.89
2023-03-06T06:51:17.251Z,0.89
2023-03-06T06:52:18.291Z,0.88
2023-03-06T06:53:18.196Z,0.89
2023-03-06T06:54:17.139Z,0.89
2023-03-06T06:55:17.227Z,0.89
2023-03-06T06:56:17.094Z,0.92
2023-03-06T06:57:17.125Z,0.94
2023-03-06T06:58:17.139Z,0.94
2023-03-06T06:59:17.690Z,0.97
2023-03-06T07:00:18.061Z,0.96
2023-03-06T07:01:17.082Z,0.94
2023-03-06T07:02:17.846Z,0.92
2023-03-06T07:03:17.100Z,0.92
2023-03-06T07:04:17.085Z,0.92
2023-03-06T07:05:17.081Z,0.90
2023-03-06T07:06:17.232Z,0.90
2023-03-06T07:07:17.008Z,0.92
2023-03-06T07:08:16.951Z,0.94
2023-03-06T07:09:17.003Z,0.96
2023-03-06T07:10:18.379Z,0.96
2023-03-06T07:11:16.911Z,0.96
2023-03-06T07:12:16.914Z,0.97
2023-03-06T07:13:16.876Z,0.96
2023-03-06T07:14:17.002Z,0.94
2023-03-06T07:15:16.877Z,0.94
2023-03-06T07:16:16.911Z,0.90
2023-03-06T07:17:16.907Z,0.92
2023-03-06T07:18:16.873Z,0.94
2023-03-06T07:19:17.751Z,0.96
2023-03-06T07:20:16.838Z,0.96
2023-03-06T07:21:16.802Z,0.98
2023-03-06T07:22:16.820Z,1.03
2023-03-06T07:23:16.811Z,1.01
2023-03-06T07:24:16.812Z,1.03
2023-03-06T07:25:16.862Z,1.04
2023-03-06T07:26:17.601Z,1.06
2023-03-06T07:27:16.738Z,1.08
2023-03-06T07:28:18.621Z,1.10
2023-03-06T07:29:16.755Z,1.06
2023-03-06T07:30:16.695Z,1.07
2023-03-06T07:31:17.692Z,1.07
2023-03-06T07:32:16.709Z,1.08
2023-03-06T07:33:16.645Z,1.07
2023-03-06T07:34:16.756Z,1.03
2023-03-06T07:35:29.392Z,1.03
2023-03-06T07:36:17.629Z,1.03
2023-03-06T07:37:16.586Z,1.07
2023-03-06T07:38:16.602Z,1.07
2023-03-06T07:39:17.366Z,1.04
2023-03-06T07:40:16.648Z,1.06
2023-03-06T07:41:16.617Z,1.04
2023-03-06T07:42:16.598Z,1.04
2023-03-06T07:43:19.452Z,1.00
2023-03-06T07:44:16.552Z,1.00
2023-03-06T07:45:16.534Z,1.00
2023-03-06T07:46:16.579Z,0.96
2023-03-06T07:47:16.497Z,0.98
2023-03-06T07:48:16.501Z,0.98
2023-03-06T07:49:16.457Z,1.00
2023-03-06T07:50:16.433Z,1.00
2023-03-06T07:51:16.962Z,0.98
2023-03-06T07:52:16.426Z,1.00
2023-03-06T07:53:16.430Z,0.98
2023-03-06T07:54:17.481Z,1.00
2023-03-06T07:55:16.443Z,1.01
2023-03-06T07:56:16.433Z,1.03
2023-03-06T07:57:16.386Z,1.04
2023-03-06T07:58:16.339Z,1.03
2023-03-06T07:59:17.544Z,1.03
2023-03-06T08:00:16.309Z,1.03
2023-03-06T08:01:16.313Z,1.03
2023-03-06T08:02:16.314Z,0.98
2023-03-06T08:03:16.362Z,1.00
2023-03-06T08:04:16.341Z,1.01
2023-03-06T08:05:16.283Z,1.03
2023-03-06T08:06:16.266Z,1.08
2023-03-06T08:07:16.289Z,1.12
2023-03-06T08:08:16.216Z,1.10
2023-03-06T08:09:16.597Z,1.14
2023-03-06T08:10:16.734Z,1.12
2023-03-06T08:11:16.343Z,1.10
2023-03-06T08:12:16.771Z,1.08
2023-03-06T08:13:16.163Z,1.10
2023-03-06T08:14:16.339Z,1.10
2023-03-06T08:15:16.154Z,1.12
2023-03-06T08:16:16.186Z,1.12
2023-03-06T08:17:16.111Z,1.08
2023-03-06T08:18:16.083Z,1.08
2023-03-06T08:19:16.083Z,1.07
2023-03-06T08:20:16.072Z,1.08
2023-03-06T08:21:16.072Z,1.10
2023-03-06T08:22:16.052Z,1.10
2023-03-06T08:23:16.111Z,1.12
2023-03-06T08:24:16.100Z,1.12
2023-03-06T08:25:16.060Z,1.10
2023-03-06T08:26:16.009Z,1.15
2023-03-06T08:27:16.079Z,1.19
2023-03-06T08:28:16.069Z,1.25
2023-03-06T08:29:16.027Z,1.24
2023-03-06T08:30:15.941Z,1.22
2023-03-06T08:31:16.017Z,1.19
2023-03-06T08:32:16.062Z,1.21
2023-03-06T08:33:15.880Z,1.25
2023-03-06T08:34:15.991Z,1.28
2023-03-06T08:35:15.938Z,1.29
2023-03-06T08:36:15.899Z,1.33
2023-03-06T08:37:15.940Z,1.34
2023-03-06T08:38:15.873Z,1.39
2023-03-06T08:39:15.962Z,1.42
2023-03-06T08:40:15.812Z,1.43
2023-03-06T08:41:15.821Z,1.43
2023-03-06T08:42:15.866Z,1.47
2023-03-06T08:43:15.812Z,1.52
2023-03-06T08:44:16.755Z,1.52
2023-03-06T08:45:15.773Z,1.50
2023-03-06T08:46:15.740Z,1.47
2023-03-06T08:47:15.794Z,1.47
2023-03-06T08:48:16.003Z,1.43
2023-03-06T08:49:15.741Z,1.44
2023-03-06T08:50:15.742Z,1.47
2023-03-06T08:51:15.674Z,1.43
2023-03-06T08:52:15.720Z,1.46
2023-03-06T08:53:15.681Z,1.44
2023-03-06T08:54:15.690Z,1.44
2023-03-06T08:55:15.675Z,1.46
2023-03-06T08:56:15.608Z,1.43
2023-03-06T08:57:15.630Z,1.43
2023-03-06T08:58:15.597Z,1.44
2023-03-06T08:59:15.588Z,1.46
2023-03-06T09:00:15.611Z,1.47
2023-03-06T09:01:15.572Z,1.50
2023-03-06T09:02:15.685Z,1.46
2023-03-06T09:03:15.687Z,1.42
2023-03-06T09:04:15.531Z,1.36
2023-03-06T09:05:15.498Z,1.29
2023-03-06T09:06:15.508Z,1.29
2023-03-06T09:07:15.515Z,1.34
2023-03-06T09:08:15.523Z,1.37
2023-03-06T09:09:15.484Z,1.40
2023-03-06T09:10:15.471Z,1.44
2023-03-06T09:11:15.417Z,1.44
2023-03-06T09:12:15.430Z,1.42
2023-03-06T09:13:15.493Z,1.40
2023-03-06T09:14:16.362Z,1.39
2023-03-06T09:15:15.453Z,1.42
2023-03-06T09:16:15.402Z,1.47
2023-03-06T09:17:15.397Z,1.54
2023-03-06T09:18:15.370Z,1.57
2023-03-06T09:19:15.316Z,1.58
2023-03-06T09:20:15.847Z,1.68
2023-03-06T09:21:15.316Z,1.73
2023-03-06T09:22:15.343Z,1.76
2023-03-06T09:23:15.326Z,1.73
2023-03-06T09:24:15.664Z,1.73
2023-03-06T09:25:15.296Z,1.76
2023-03-06T09:26:15.344Z,1.73
2023-03-06T09:27:15.244Z,1.78
2023-03-06T09:28:15.235Z,1.79
2023-03-06T09:29:15.193Z,1.78
2023-03-06T09:30:15.262Z,1.72
2023-03-06T09:31:15.319Z,1.75
2023-03-06T09:32:15.215Z,1.79
2023-03-06T09:33:15.220Z,1.75
2023-03-06T09:34:15.168Z,1.73
2023-03-06T09:35:15.161Z,1.73
2023-03-06T09:36:15.133Z,1.71
2023-03-06T09:37:16.303Z,1.69
2023-03-06T09:38:15.137Z,1.71
2023-03-06T09:39:15.122Z,1.72
2023-03-06T09:40:15.079Z,1.69
2023-03-06T09:41:15.133Z,1.73
2023-03-06T09:42:15.078Z,1.72
2023-03-06T09:43:15.029Z,1.71
2023-03-06T09:44:15.070Z,1.76
2023-03-06T09:45:15.035Z,1.78
2023-03-06T09:46:15.046Z,1.80
2023-03-06T09:47:15.011Z,1.90
2023-03-06T09:48:14.954Z,1.97
2023-03-06T09:49:14.961Z,1.94
2023-03-06T09:50:14.985Z,1.99
2023-03-06T09:51:14.960Z,1.98
2023-03-06T09:52:14.907Z,1.91
2023-03-06T09:53:14.890Z,1.90
2023-03-06T09:54:14.865Z,1.93
2023-03-06T09:55:14.931Z,2.02
2023-03-06T09:56:14.865Z,2.13
2023-03-06T09:57:14.875Z,2.27
2023-03-06T09:58:15.774Z,2.30
2023-03-06T09:59:14.814Z,2.35
2023-03-06T10:00:14.857Z,2.38
2023-03-06T10:01:15.115Z,2.44
2023-03-06T10:02:14.972Z,2.52
2023-03-06T10:03:14.897Z,2.63
2023-03-06T10:04:14.794Z,2.71
2023-03-06T10:05:14.905Z,2.76
2023-03-06T10:06:14.745Z,2.79
2023-03-06T10:07:14.728Z,2.85
2023-03-06T10:08:14.698Z,2.88
2023-03-06T10:09:14.728Z,2.94
2023-03-06T10:10:14.830Z,3.00
2023-03-06T10:11:14.720Z,3.07
2023-03-06T10:12:14.667Z,3.12
2023-03-06T10:13:14.658Z,3.16
2023-03-06T10:14:14.630Z,3.24
2023-03-06T10:15:14.625Z,3.42
2023-03-06T10:16:14.728Z,3.53
2023-03-06T10:17:15.512Z,3.60
2023-03-06T10:18:14.834Z,3.64
2023-03-06T10:19:14.574Z,3.72
2023-03-06T10:20:14.601Z,3.75
2023-03-06T10:21:19.327Z,3.72
2023-03-06T10:22:15.544Z,3.82
2023-03-06T10:23:15.447Z,3.92
2023-03-06T10:24:14.706Z,4.07
2023-03-06T10:25:14.484Z,4.21
2023-03-06T10:26:14.574Z,4.10
2023-03-06T10:27:14.522Z,4.10
2023-03-06T10:28:14.444Z,4.15
2023-03-06T10:29:14.469Z,4.18
2023-03-06T10:30:14.438Z,4.26
2023-03-06T10:31:14.459Z,4.24
2023-03-06T10:32:14.436Z,4.29
2023-03-06T10:33:14.379Z,4.33
2023-03-06T10:34:14.428Z,4.32
2023-03-06T10:35:14.421Z,4.28
2023-03-06T10:36:14.662Z,4.28
2023-03-06T10:37:14.339Z,4.26
2023-03-06T10:38:14.354Z,4.32
2023-03-06T10:39:14.351Z,4.39
2023-03-06T10:40:14.321Z,4.39
2023-03-06T10:41:14.326Z,4.47
2023-03-06T10:42:14.287Z,4.54
2023-03-06T10:43:14.291Z,4.57
2023-03-06T10:44:15.481Z,4.58
2023-03-06T10:45:14.230Z,4.70
2023-03-06T10:46:14.216Z,4.83
2023-03-06T10:47:14.225Z,4.92
2023-03-06T10:48:14.205Z,4.96
2023-03-06T10:49:14.999Z,4.95
2023-03-06T10:50:14.158Z,4.67
2023-03-06T10:51:18.630Z,4.47
2023-03-06T10:52:14.154Z,4.34
2023-03-06T10:53:14.135Z,4.33
2023-03-06T10:54:14.154Z,4.39
2023-03-06T10:55:14.133Z,4.52
2023-03-06T10:56:14.088Z,4.64
2023-03-06T10:57:14.077Z,4.62
2023-03-06T10:58:14.088Z,4.54
2023-03-06T10:59:14.098Z,4.47
2023-03-06T11:00:14.035Z,4.32
2023-03-06T11:01:14.080Z,4.29
2023-03-06T11:02:14.041Z,4.26
2023-03-06T11:03:13.999Z,4.25
2023-03-06T11:04:14.101Z,4.15
2023-03-06T11:05:14.012Z,4.07
2023-03-06T11:06:13.967Z,4.04
2023-03-06T11:07:14.809Z,3.98
2023-03-06T11:08:14.444Z,3.97
2023-03-06T11:09:14.028Z,4.00
2023-03-06T11:10:13.951Z,3.98
2023-03-06T11:11:13.881Z,3.90
2023-03-06T11:12:13.873Z,3.86
2023-03-06T11:13:13.883Z,3.89
2023-03-06T11:14:13.893Z,3.79
2023-03-06T11:15:13.884Z,3.71
2023-03-06T11:16:13.860Z,3.60
2023-03-06T11:17:13.826Z,3.52
2023-03-06T11:18:13.811Z,3.58
2023-03-06T11:19:13.814Z,3.50
2023-03-06T11:20:14.186Z,3.43
2023-03-06T11:21:14.186Z,3.46
2023-03-06T11:22:13.755Z,3.57
2023-03-06T11:23:13.775Z,3.68
2023-03-06T11:24:13.815Z,3.80
2023-03-06T11:25:13.775Z,3.78
2023-03-06T11:26:13.710Z,3.85
2023-03-06T11:27:14.933Z,3.82
2023-03-06T11:28:13.692Z,3.78
2023-03-06T11:29:13.699Z,3.72
2023-03-06T11:30:14.642Z,3.80
2023-03-06T11:31:13.748Z,3.82
2023-03-06T11:32:13.719Z,3.72
2023-03-06T11:33:13.635Z,3.80
2023-03-06T11:34:13.632Z,3.86
2023-03-06T11:35:13.688Z,3.70
2023-03-06T11:36:13.591Z,3.52
2023-03-06T11:37:13.602Z,3.44
2023-03-06T11:38:13.577Z,3.49
2023-03-06T11:39:15.491Z,3.62
2023-03-06T11:40:13.566Z,3.72
2023-03-06T11:41:13.540Z,3.83
2023-03-06T11:42:13.564Z,3.80
2023-03-06T11:43:13.500Z,3.96
2023-03-06T11:44:13.470Z,4.07
2023-03-06T11:45:13.493Z,4.21
2023-03-06T11:46:13.533Z,4.32
2023-03-06T11:47:13.625Z,4.19
2023-03-06T11:48:13.416Z,4.12
2023-03-06T11:49:13.413Z,4.24
2023-03-06T11:50:13.446Z,4.18
2023-03-06T11:51:13.486Z,3.97
2023-03-06T11:52:13.374Z,3.83
2023-03-06T11:53:13.340Z,3.90
2023-03-06T11:54:13.377Z,3.94
2023-03-06T11:55:13.367Z,3.94
2023-03-06T11:56:13.381Z,3.85
2023-03-06T11:57:13.318Z,3.72
2023-03-06T11:58:13.288Z,3.83
2023-03-06T11:59:13.322Z,3.80
2023-03-06T12:00:13.298Z,3.80
2023-03-06T12:01:13.283Z,3.96
2023-03-06T12:02:13.349Z,4.00
2023-03-06T12:03:13.287Z,4.16
2023-03-06T12:04:13.209Z,4.22
2023-03-06T12:05:13.284Z,4.24
2023-03-06T12:06:13.199Z,4.25
2023-03-06T12:07:13.320Z,4.36
2023-03-06T12:08:13.200Z,4.29
2023-03-06T12:09:13.161Z,4.43
2023-03-06T12:10:13.155Z,4.59
2023-03-06T12:11:14.296Z,4.72
2023-03-06T12:12:13.147Z,4.64
2023-03-06T12:13:13.148Z,4.28
2023-03-06T12:14:13.081Z,4.21
2023-03-06T12:15:13.079Z,4.24
2023-03-06T12:16:13.089Z,4.25
2023-03-06T12:17:13.139Z,4.22
2023-03-06T12:18:13.060Z,4.19
2023-03-06T12:19:13.081Z,4.14
2023-03-06T12:20:13.042Z,4.07
2023-03-06T12:21:13.023Z,3.94
2023-03-06T12:22:12.998Z,3.72
2023-03-06T12:23:15.641Z,3.68
2023-03-06T12:24:13.859Z,3.75
2023-03-06T12:25:13.322Z,3.78
2023-03-06T12:26:12.973Z,3.70
2023-03-06T12:27:12.925Z,3.68
2023-03-06T12:28:12.940Z,3.67
2023-03-06T12:29:12.920Z,3.72
2023-03-06T12:30:12.899Z,3.68
2023-03-06T12:31:12.908Z,3.76
2023-03-06T12:32:12.958Z,3.79
2023-03-06T12:33:12.893Z,3.76
2023-03-06T12:34:12.848Z,3.83
2023-03-06T12:35:12.827Z,3.89
2023-03-06T12:36:12.877Z,4.03
2023-03-06T12:37:13.182Z,4.12
2023-03-06T12:38:12.947Z,4.15
2023-03-06T12:39:12.769Z,4.21
2023-03-06T12:40:12.767Z,4.18
2023-03-06T12:41:12.777Z,4.25
2023-03-06T12:42:22.642Z,4.36
2023-03-06T12:43:13.781Z,4.52
2023-03-06T12:44:12.787Z,4.64
2023-03-06T12:45:12.686Z,4.72
2023-03-06T12:46:12.809Z,4.80
2023-03-06T12:47:12.701Z,4.89
2023-03-06T12:48:12.687Z,4.94
2023-03-06T12:49:17.804Z,4.86
2023-03-06T12:50:13.814Z,4.83
2023-03-06T12:51:12.621Z,4.86
2023-03-06T12:52:16.018Z,4.73
2023-03-06T12:53:13.639Z,4.73
2023-03-06T12:54:12.588Z,4.76
2023-03-06T12:55:12.590Z,4.70
2023-03-06T12:56:12.545Z,4.58
2023-03-06T12:57:12.565Z,4.59
2023-03-06T12:58:12.592Z,4.72
2023-03-06T12:59:12.581Z,4.79
2023-03-06T13:00:12.514Z,4.94
2023-03-06T13:01:12.527Z,4.96
2023-03-06T13:02:13.541Z,5.04
2023-03-06T13:03:12.495Z,5.16
2023-03-06T13:04:12.504Z,5.23
2023-03-06T13:05:12.433Z,5.04
2023-03-06T13:06:12.448Z,4.83
2023-03-06T13:07:12.425Z,4.88
2023-03-06T13:08:12.425Z,4.94
2023-03-06T13:09:12.414Z,4.92
2023-03-06T13:10:12.567Z,4.92
2023-03-06T13:11:12.387Z,4.92
2023-03-06T13:12:12.401Z,4.77
2023-03-06T13:13:12.344Z,4.69
2023-03-06T13:14:12.340Z,4.65
2023-03-06T13:15:12.344Z,4.55
2023-03-06T13:16:12.317Z,4.54
2023-03-06T13:17:12.283Z,4.54
2023-03-06T13:18:12.278Z,4.39
2023-03-06T13:19:12.313Z,4.47